This is the latest recevied weather packets stored in our database for station/object R6HABA-13. If no packets are shown the sender has not sent any weather packets the latest 1 day(s).
| Time | Temp. | Humidity | Pressure | Rain* | Wind** | Luminosity | Snow |
|---|---|---|---|---|---|---|---|
| 1778018403 | 16.11° C | 84% | 1009 hPa | - | 3.58 m/s, 238° | - | - |
| 1778017503 | 16.11° C | 84% | 1009 hPa | - | 3.58 m/s, 238° | - | - |
| 1778016602 | 16.11° C | 84% | 1009 hPa | - | 3.58 m/s, 238° | - | - |
| 1778015704 | 16.11° C | 84% | 1009 hPa | - | 3.58 m/s, 238° | - | - |
| 1778014805 | 16.11° C | 84% | 1009 hPa | - | 3.58 m/s, 238° | - | - |
| 1778013903 | 16.11° C | 84% | 1009 hPa | - | 3.58 m/s, 238° | - | - |
| 1778013003 | 16.11° C | 84% | 1009 hPa | - | 3.58 m/s, 238° | - | - |
| 1778012102 | 16.11° C | 84% | 1010 hPa | - | 3.58 m/s, 238° | - | - |
| 1778011203 | 16.11° C | 84% | 1010 hPa | - | 3.58 m/s, 238° | - | - |
| 1778010563 | -17.78° C | - | 1010 hPa | - | 3.58 m/s, 238° | - | - |
| 1778010057 | -17.78° C | - | 0 hPa | - | 0 m/s | - | - |
| 1778008502 | 16.67° C | 78% | 1009 hPa | - | 2.24 m/s, 214° | - | - |
| 1778007603 | 16.67° C | 78% | 1009 hPa | - | 2.24 m/s, 214° | - | - |
| 1778006703 | 16.67° C | 78% | 1009 hPa | - | 2.24 m/s, 214° | - | - |
| 1778005803 | 16.67° C | 78% | 1009 hPa | - | 2.24 m/s, 214° | - | - |
| 1778004903 | 17.78° C | 72% | 1009 hPa | - | 0.45 m/s, 241° | - | - |
| 1778004003 | 17.78° C | 73% | 1009 hPa | - | 0.45 m/s, 241° | - | - |
| 1778003102 | 18.33° C | 73% | 1009 hPa | - | 0.45 m/s, 241° | - | - |
| 1778002203 | 18.89° C | 69% | 1009 hPa | - | 1.34 m/s, 288° | - | - |
| 1778001303 | 18.89° C | 69% | 1008 hPa | - | 1.34 m/s, 288° | - | - |
| 1778000403 | 19.44° C | 69% | 1009 hPa | - | 1.34 m/s, 288° | - | - |
| 1777999502 | 20° C | 68% | 1009 hPa | - | 1.34 m/s, 288° | - | - |
| 1777998603 | 21.67° C | 57% | 1009 hPa | - | 0.45 m/s, 274° | - | - |
| 1777997702 | 21.67° C | 57% | 1008 hPa | - | 0.89 m/s, 274° | - | - |
| 1777997456 | -17.78° C | 42% | 0 hPa | - | 0 m/s | - | - |
* Rain since midnight (hover to see other rain measurements)
** Current wind speed in m/s (hover to see current wind gust speed)